CES9604 LSZH-VTSP
Flight info
| Callsign | CES9604 |
|---|---|
| Flight time | N/A |
| Altitude | 31000 |
| Route | DEGES Z2 TUNUM Z204 GEDSO DCT BERTA DCT MAGAM DCT TUVAR DCT ETIDA DCT WRN DCT UDROS/N0477F330 UM859 KARDE UL851 TBN UM11 REBLO M11 ERLEV L850 BAKUV N701 LARGI B701 TUGTA A909 BODBA/N0476F350 A909 LEMOD N644 DI A466 DPN L759 ENTAP/N0485F370 L759 SATVA SATVA1C |
| Aircraft | B764/H-SDE3FGHIM3RWXY/LB1 |
Departure
| Time | 2026-05-05 16:58 |
|---|---|
| Airport | Zürich Airport (LSZH) |
Arrival
| Time | N/A |
|---|---|
| Airport | Phuket International Airport (VTSP) |
| Time | Latitude | Longitude | Altitude | Speed | Heading |
|---|---|---|---|---|---|
| 2026-05-05 16:28 | 47.46036 | 8.55467 | 1387 ft | 0 kts | 6° |
| 2026-05-05 16:44 | 47.46022 | 8.55465 | 1387 ft | 2 kts | 6° |
| 2026-05-05 16:45 | 47.46008 | 8.55463 | 1387 ft | 2 kts | 6° |
| 2026-05-05 16:45 | 47.45998 | 8.55461 | 1387 ft | 1 kts | 6° |
| 2026-05-05 16:45 | 47.45984 | 8.55462 | 1387 ft | 2 kts | 340° |
| 2026-05-05 16:45 | 47.45972 | 8.55473 | 1387 ft | 2 kts | 312° |
| 2026-05-05 16:46 | 47.45965 | 8.55491 | 1387 ft | 2 kts | 285° |
| 2026-05-05 16:46 | 47.45964 | 8.55503 | 1387 ft | 0 kts | 275° |
| 2026-05-05 16:46 | 47.45964 | 8.55504 | 1387 ft | 0 kts | 275° |
| 2026-05-05 16:47 | 47.45963 | 8.55504 | 1387 ft | 0 kts | 275° |
| 2026-05-05 16:48 | 47.45964 | 8.55504 | 1387 ft | 0 kts | 275° |
| 2026-05-05 16:48 | 47.45964 | 8.55503 | 1387 ft | 0 kts | 275° |
| 2026-05-05 16:48 | 47.45965 | 8.55477 | 1387 ft | 4 kts | 275° |
| 2026-05-05 16:49 | 47.45968 | 8.55426 | 1387 ft | 5 kts | 276° |
| 2026-05-05 16:49 | 47.45974 | 8.55354 | 1387 ft | 8 kts | 277° |
| 2026-05-05 16:49 | 47.45982 | 8.55259 | 1387 ft | 10 kts | 276° |
| 2026-05-05 16:49 | 47.45990 | 8.55140 | 1387 ft | 12 kts | 276° |
| 2026-05-05 16:50 | 47.46001 | 8.55002 | 1387 ft | 12 kts | 281° |
| 2026-05-05 16:50 | 47.46059 | 8.54912 | 1385 ft | 12 kts | 335° |
| 2026-05-05 16:50 | 47.46147 | 8.54851 | 1384 ft | 15 kts | 335° |
| 2026-05-05 16:50 | 47.46252 | 8.54778 | 1384 ft | 17 kts | 335° |
| 2026-05-05 16:51 | 47.46368 | 8.54698 | 1385 ft | 19 kts | 335° |
| 2026-05-05 16:51 | 47.46495 | 8.54611 | 1383 ft | 21 kts | 335° |
| 2026-05-05 16:51 | 47.46637 | 8.54513 | 1383 ft | 23 kts | 335° |
| 2026-05-05 16:51 | 47.46790 | 8.54417 | 1383 ft | 24 kts | 339° |
| 2026-05-05 16:52 | 47.46947 | 8.54314 | 1383 ft | 24 kts | 335° |
| 2026-05-05 16:52 | 47.47100 | 8.54208 | 1383 ft | 23 kts | 336° |
| 2026-05-05 16:52 | 47.47245 | 8.54109 | 1383 ft | 22 kts | 334° |
| 2026-05-05 16:52 | 47.47374 | 8.54021 | 1384 ft | 18 kts | 335° |
| 2026-05-05 16:53 | 47.47475 | 8.53951 | 1386 ft | 13 kts | 335° |
| 2026-05-05 16:53 | 47.47548 | 8.53900 | 1387 ft | 9 kts | 333° |
| 2026-05-05 16:53 | 47.47561 | 8.53888 | 1388 ft | 0 kts | 327° |
| 2026-05-05 16:55 | 47.47564 | 8.53885 | 1388 ft | 1 kts | 327° |
| 2026-05-05 16:55 | 47.47583 | 8.53863 | 1388 ft | 4 kts | 315° |
| 2026-05-05 16:56 | 47.47601 | 8.53819 | 1389 ft | 5 kts | 290° |
| 2026-05-05 16:56 | 47.47604 | 8.53768 | 1390 ft | 4 kts | 263° |
| 2026-05-05 16:56 | 47.47591 | 8.53712 | 1390 ft | 6 kts | 249° |
| 2026-05-05 16:56 | 47.47559 | 8.53662 | 1390 ft | 7 kts | 208° |
| 2026-05-05 16:57 | 47.47507 | 8.53650 | 1390 ft | 8 kts | 174° |
| 2026-05-05 16:57 | 47.47444 | 8.53680 | 1388 ft | 13 kts | 156° |
| 2026-05-05 16:57 | 47.47194 | 8.53850 | 1383 ft | 68 kts | 155° |
| 2026-05-05 16:57 | 47.46593 | 8.54269 | 1384 ft | 123 kts | 156° |
| 2026-05-05 16:58 | 47.45660 | 8.54908 | 1388 ft | 173 kts | 156° |
| 2026-05-05 16:58 | 47.44463 | 8.55746 | 1609 ft | 201 kts | 157° |
| 2026-05-05 16:58 | 47.43683 | 8.56322 | 2033 ft | 203 kts | 155° |
| 2026-05-05 16:58 | 47.42448 | 8.57329 | 2562 ft | 212 kts | 148° |
| 2026-05-05 16:59 | 47.41453 | 8.59024 | 2657 ft | 227 kts | 112° |
| 2026-05-05 16:59 | 47.41307 | 8.61274 | 2998 ft | 227 kts | 77° |
| 2026-05-05 16:59 | 47.42070 | 8.63308 | 3324 ft | 229 kts | 42° |
| 2026-05-05 16:59 | 47.43469 | 8.64415 | 3481 ft | 240 kts | 15° |
| 2026-05-05 17:00 | 47.45089 | 8.65329 | 3531 ft | 258 kts | 36° |
| 2026-05-05 17:00 | 47.46320 | 8.67296 | 3666 ft | 271 kts | 66° |
| 2026-05-05 17:00 | 47.46751 | 8.69988 | 4028 ft | 273 kts | 94° |
| 2026-05-05 17:00 | 47.46639 | 8.72801 | 4538 ft | 274 kts | 94° |
| 2026-05-05 17:01 | 47.46630 | 8.75617 | 4979 ft | 278 kts | 91° |
| 2026-05-05 17:01 | 47.46668 | 8.78455 | 5435 ft | 282 kts | 91° |
| 2026-05-05 17:01 | 47.46724 | 8.81376 | 5914 ft | 283 kts | 95° |
| 2026-05-05 17:01 | 47.46434 | 8.84226 | 6361 ft | 283 kts | 106° |
| 2026-05-05 17:02 | 47.46012 | 8.87060 | 6898 ft | 283 kts | 105° |
| 2026-05-05 17:02 | 47.45606 | 8.89879 | 7389 ft | 284 kts | 104° |
| 2026-05-05 17:02 | 47.45201 | 8.92739 | 7939 ft | 282 kts | 104° |
| 2026-05-05 17:02 | 47.44799 | 8.95557 | 8439 ft | 282 kts | 104° |
| 2026-05-05 17:03 | 47.44396 | 8.98387 | 8842 ft | 287 kts | 104° |
| 2026-05-05 17:03 | 47.43984 | 9.01267 | 9276 ft | 290 kts | 104° |
| 2026-05-05 17:03 | 47.43564 | 9.04190 | 9774 ft | 291 kts | 105° |
| 2026-05-05 17:03 | 47.43144 | 9.07099 | 10192 ft | 293 kts | 104° |
| 2026-05-05 17:04 | 47.42710 | 9.10098 | 10304 ft | 309 kts | 104° |
| 2026-05-05 17:04 | 47.42246 | 9.13290 | 10345 ft | 328 kts | 104° |
| 2026-05-05 17:04 | 47.41756 | 9.16664 | 10389 ft | 348 kts | 104° |
| 2026-05-05 17:04 | 47.41269 | 9.20225 | 10775 ft | 358 kts | 99° |
| 2026-05-05 17:05 | 47.41047 | 9.23928 | 11345 ft | 362 kts | 96° |
| 2026-05-05 17:05 | 47.40818 | 9.27584 | 11916 ft | 365 kts | 97° |
| 2026-05-05 17:05 | 47.40597 | 9.31353 | 12492 ft | 369 kts | 97° |
| 2026-05-05 17:05 | 47.40369 | 9.35101 | 13053 ft | 372 kts | 97° |
| 2026-05-05 17:06 | 47.40139 | 9.38932 | 13564 ft | 376 kts | 97° |
| 2026-05-05 17:06 | 47.39905 | 9.42785 | 14098 ft | 380 kts | 97° |
| 2026-05-05 17:06 | 47.39670 | 9.46660 | 14618 ft | 384 kts | 97° |
| 2026-05-05 17:06 | 47.39431 | 9.50572 | 15134 ft | 388 kts | 97° |
| 2026-05-05 17:07 | 47.39187 | 9.54564 | 15643 ft | 392 kts | 97° |
| 2026-05-05 17:07 | 47.38938 | 9.58578 | 16152 ft | 396 kts | 97° |
| 2026-05-05 17:07 | 47.38687 | 9.62627 | 16649 ft | 400 kts | 97° |
| 2026-05-05 17:07 | 47.38433 | 9.66703 | 17190 ft | 402 kts | 98° |
| 2026-05-05 17:08 | 47.38173 | 9.70829 | 17672 ft | 406 kts | 98° |
| 2026-05-05 17:08 | 47.37915 | 9.74932 | 18169 ft | 409 kts | 98° |
| 2026-05-05 17:08 | 47.37649 | 9.79109 | 18734 ft | 411 kts | 98° |
| 2026-05-05 17:08 | 47.37381 | 9.83323 | 19198 ft | 415 kts | 98° |
| 2026-05-05 17:09 | 47.37108 | 9.87560 | 19683 ft | 418 kts | 98° |
| 2026-05-05 17:09 | 47.36833 | 9.91823 | 20163 ft | 421 kts | 98° |
| 2026-05-05 17:09 | 47.36552 | 9.96136 | 20700 ft | 423 kts | 98° |
| 2026-05-05 17:09 | 47.36273 | 10.00413 | 21201 ft | 425 kts | 98° |
| 2026-05-05 17:10 | 47.35988 | 10.04749 | 21609 ft | 428 kts | 98° |
| 2026-05-05 17:10 | 47.35700 | 10.09099 | 22078 ft | 430 kts | 98° |
| 2026-05-05 17:10 | 47.35407 | 10.13497 | 22497 ft | 433 kts | 98° |
| 2026-05-05 17:10 | 47.35111 | 10.17922 | 22932 ft | 434 kts | 98° |
| 2026-05-05 17:11 | 47.34813 | 10.22353 | 23338 ft | 436 kts | 99° |
| 2026-05-05 17:11 | 47.34515 | 10.26749 | 23733 ft | 438 kts | 99° |
| 2026-05-05 17:11 | 47.34209 | 10.31238 | 24032 ft | 442 kts | 99° |
| 2026-05-05 17:11 | 47.33901 | 10.35749 | 24466 ft | 445 kts | 99° |
| 2026-05-05 17:12 | 47.33588 | 10.40270 | 24944 ft | 447 kts | 99° |
| 2026-05-05 17:12 | 47.33272 | 10.44830 | 25285 ft | 451 kts | 99° |
| 2026-05-05 17:12 | 47.32954 | 10.49402 | 25680 ft | 453 kts | 99° |
| 2026-05-05 17:12 | 47.32630 | 10.54005 | 26067 ft | 455 kts | 99° |
| 2026-05-05 17:13 | 47.32302 | 10.58672 | 26401 ft | 459 kts | 99° |
| 2026-05-05 17:13 | 47.31970 | 10.63334 | 26714 ft | 461 kts | 99° |
| 2026-05-05 17:13 | 47.31636 | 10.68034 | 27107 ft | 462 kts | 100° |
| 2026-05-05 17:13 | 47.31295 | 10.72767 | 27319 ft | 466 kts | 100° |
| 2026-05-05 17:14 | 47.30958 | 10.77455 | 27673 ft | 467 kts | 100° |
| 2026-05-05 17:14 | 47.30608 | 10.82267 | 27903 ft | 471 kts | 100° |
| 2026-05-05 17:14 | 47.30259 | 10.87046 | 28232 ft | 472 kts | 100° |
| 2026-05-05 17:14 | 47.29905 | 10.91848 | 28445 ft | 475 kts | 99° |
| 2026-05-05 17:15 | 47.29552 | 10.96638 | 28737 ft | 476 kts | 100° |
| 2026-05-05 17:15 | 47.29188 | 11.01520 | 28914 ft | 480 kts | 99° |
| 2026-05-05 17:15 | 47.28825 | 11.06384 | 29250 ft | 479 kts | 99° |
| 2026-05-05 17:15 | 47.28462 | 11.11214 | 29461 ft | 482 kts | 99° |
| 2026-05-05 17:16 | 47.28088 | 11.16147 | 29599 ft | 485 kts | 100° |
| 2026-05-05 17:16 | 47.27700 | 11.21051 | 29835 ft | 486 kts | 99° |
| 2026-05-05 17:16 | 47.27329 | 11.26005 | 30063 ft | 487 kts | 99° |
| 2026-05-05 17:16 | 47.26955 | 11.30889 | 30240 ft | 489 kts | 99° |
| 2026-05-05 17:17 | 47.26569 | 11.35909 | 30447 ft | 490 kts | 99° |
| 2026-05-05 17:17 | 47.26183 | 11.40883 | 30581 ft | 492 kts | 99° |
| 2026-05-05 17:17 | 47.25613 | 11.45824 | 30759 ft | 489 kts | 108° |
| 2026-05-05 17:17 | 47.24560 | 11.50468 | 30928 ft | 480 kts | 117° |
| 2026-05-05 17:18 | 47.21244 | 11.58904 | 30964 ft | 475 kts | 127° |
| 2026-05-05 17:18 | 47.17579 | 11.66935 | 30960 ft | 477 kts | 128° |
| 2026-05-05 17:19 | 47.13798 | 11.74968 | 30929 ft | 479 kts | 129° |
| 2026-05-05 17:19 | 47.09983 | 11.82971 | 30949 ft | 481 kts | 128° |
| 2026-05-05 17:20 | 47.07061 | 11.91803 | 30948 ft | 491 kts | 111° |
| 2026-05-05 17:20 | 47.04989 | 12.01325 | 30956 ft | 492 kts | 111° |
| 2026-05-05 17:21 | 47.02917 | 12.10852 | 30925 ft | 494 kts | 111° |
| 2026-05-05 17:22 | 46.99797 | 12.25161 | 30949 ft | 494 kts | 110° |
| 2026-05-05 17:22 | 46.97705 | 12.34715 | 30931 ft | 493 kts | 110° |
| 2026-05-05 17:23 | 46.95618 | 12.44206 | 30960 ft | 492 kts | 110° |
| 2026-05-05 17:23 | 46.93510 | 12.53746 | 30974 ft | 494 kts | 110° |
| 2026-05-05 17:24 | 46.91400 | 12.63254 | 30965 ft | 495 kts | 110° |
| 2026-05-05 17:24 | 46.89267 | 12.72826 | 30958 ft | 492 kts | 111° |
| 2026-05-05 17:25 | 46.87145 | 12.82300 | 30956 ft | 493 kts | 111° |
| 2026-05-05 17:25 | 46.84998 | 12.91844 | 30941 ft | 493 kts | 111° |
| 2026-05-05 17:26 | 46.82855 | 13.01330 | 30980 ft | 494 kts | 111° |
| 2026-05-05 17:26 | 46.80717 | 13.10750 | 30984 ft | 495 kts | 111° |
| 2026-05-05 17:27 | 46.78548 | 13.20266 | 30973 ft | 495 kts | 111° |
| 2026-05-05 17:27 | 46.76367 | 13.29793 | 30962 ft | 494 kts | 110° |
| 2026-05-05 17:28 | 46.74190 | 13.39256 | 30957 ft | 496 kts | 110° |
| 2026-05-05 17:28 | 46.71999 | 13.48745 | 30948 ft | 496 kts | 110° |
| 2026-05-05 17:29 | 46.69796 | 13.58240 | 30950 ft | 494 kts | 110° |
| 2026-05-05 17:29 | 46.67593 | 13.67692 | 30950 ft | 495 kts | 111° |
| 2026-05-05 17:30 | 46.65383 | 13.77135 | 30928 ft | 496 kts | 111° |
| 2026-05-05 17:30 | 46.63194 | 13.86449 | 30947 ft | 496 kts | 111° |
| 2026-05-05 17:31 | 46.60958 | 13.95920 | 30952 ft | 497 kts | 111° |
| 2026-05-05 17:31 | 46.58703 | 14.05433 | 30950 ft | 496 kts | 111° |
| 2026-05-05 17:32 | 46.56468 | 14.14819 | 30949 ft | 497 kts | 111° |
| 2026-05-05 17:32 | 46.54207 | 14.24277 | 30951 ft | 495 kts | 111° |
| 2026-05-05 17:33 | 46.51947 | 14.33687 | 30952 ft | 495 kts | 111° |
| 2026-05-05 17:33 | 46.49673 | 14.43118 | 30953 ft | 496 kts | 111° |
| 2026-05-05 17:34 | 46.47402 | 14.52494 | 30957 ft | 496 kts | 111° |
| 2026-05-05 17:34 | 46.44962 | 14.61814 | 30936 ft | 494 kts | 118° |
| 2026-05-05 17:35 | 46.41478 | 14.70322 | 30920 ft | 494 kts | 124° |
| 2026-05-05 17:35 | 46.37864 | 14.78736 | 30922 ft | 492 kts | 124° |
| 2026-05-05 17:36 | 46.34213 | 14.87135 | 30906 ft | 494 kts | 124° |
| 2026-05-05 17:36 | 46.30546 | 14.95511 | 30930 ft | 495 kts | 124° |
| 2026-05-05 17:37 | 46.26853 | 15.03912 | 30925 ft | 496 kts | 124° |
| 2026-05-05 17:37 | 46.23167 | 15.12267 | 30924 ft | 495 kts | 124° |
| 2026-05-05 17:38 | 46.19477 | 15.20605 | 30922 ft | 496 kts | 124° |
| 2026-05-05 17:38 | 46.15765 | 15.28965 | 30927 ft | 497 kts | 124° |
| 2026-05-05 17:39 | 46.12027 | 15.37362 | 30914 ft | 497 kts | 124° |
| 2026-05-05 17:39 | 46.08310 | 15.45682 | 30935 ft | 498 kts | 124° |
| 2026-05-05 17:40 | 46.04558 | 15.54058 | 30946 ft | 499 kts | 124° |
| 2026-05-05 17:40 | 46.00796 | 15.62430 | 30941 ft | 499 kts | 124° |
| 2026-05-05 17:41 | 45.97264 | 15.70925 | 30940 ft | 501 kts | 115° |
| 2026-05-05 17:41 | 45.94917 | 15.80412 | 30938 ft | 503 kts | 110° |
| 2026-05-05 17:42 | 45.92688 | 15.89897 | 30938 ft | 503 kts | 110° |
| 2026-05-05 17:42 | 45.90467 | 15.99333 | 30939 ft | 502 kts | 110° |
| 2026-05-05 17:43 | 45.88226 | 16.08824 | 30936 ft | 503 kts | 110° |
| 2026-05-05 17:43 | 45.85981 | 16.18296 | 30942 ft | 502 kts | 110° |
| 2026-05-05 17:44 | 45.83743 | 16.27698 | 30940 ft | 501 kts | 110° |
| 2026-05-05 17:44 | 45.81490 | 16.37122 | 30939 ft | 501 kts | 110° |
| 2026-05-05 17:45 | 45.79225 | 16.46556 | 30921 ft | 499 kts | 110° |
| 2026-05-05 17:45 | 45.76978 | 16.55879 | 30927 ft | 501 kts | 110° |
| 2026-05-05 17:46 | 45.74703 | 16.65275 | 30941 ft | 500 kts | 110° |
| 2026-05-05 17:46 | 45.72432 | 16.74620 | 30925 ft | 499 kts | 110° |
| 2026-05-05 17:47 | 45.70179 | 16.83848 | 30943 ft | 499 kts | 110° |
| 2026-05-05 17:47 | 45.67896 | 16.93160 | 30924 ft | 499 kts | 111° |
| 2026-05-05 17:48 | 45.65593 | 17.02519 | 30926 ft | 498 kts | 111° |
| 2026-05-05 17:48 | 45.63299 | 17.11800 | 30926 ft | 498 kts | 110° |
| 2026-05-05 17:49 | 45.60998 | 17.21072 | 30928 ft | 497 kts | 111° |
| 2026-05-05 17:49 | 45.58680 | 17.30373 | 30931 ft | 497 kts | 111° |
| 2026-05-05 17:50 | 45.56379 | 17.39572 | 30941 ft | 497 kts | 111° |
| 2026-05-05 17:50 | 45.54037 | 17.48896 | 30963 ft | 498 kts | 111° |
| 2026-05-05 17:51 | 45.51710 | 17.58122 | 30956 ft | 496 kts | 111° |
| 2026-05-05 17:51 | 45.49390 | 17.67285 | 30963 ft | 494 kts | 112° |
| 2026-05-05 17:52 | 45.47054 | 17.76469 | 30966 ft | 493 kts | 112° |
| 2026-05-05 17:52 | 45.44720 | 17.85616 | 30950 ft | 492 kts | 112° |
| 2026-05-05 17:53 | 45.42384 | 17.94727 | 31047 ft | 493 kts | 112° |
| 2026-05-05 17:53 | 45.41215 | 17.99277 | 31373 ft | 491 kts | 112° |
| 2026-05-05 17:53 | 45.40043 | 18.03828 | 31668 ft | 491 kts | 112° |
| 2026-05-05 17:53 | 45.38872 | 18.08364 | 31864 ft | 492 kts | 111° |
| 2026-05-05 17:54 | 45.37691 | 18.12926 | 32001 ft | 494 kts | 111° |
| 2026-05-05 17:54 | 45.36510 | 18.17491 | 32259 ft | 494 kts | 111° |
| 2026-05-05 17:54 | 45.35317 | 18.22086 | 32447 ft | 495 kts | 111° |
| 2026-05-05 17:54 | 45.34130 | 18.26654 | 32696 ft | 495 kts | 111° |
| 2026-05-05 17:55 | 45.32934 | 18.31243 | 32926 ft | 495 kts | 111° |
| 2026-05-05 17:55 | 45.31754 | 18.35762 | 33188 ft | 494 kts | 111° |
| 2026-05-05 17:55 | 45.30558 | 18.40336 | 33350 ft | 495 kts | 111° |
| 2026-05-05 17:55 | 45.29358 | 18.44914 | 33615 ft | 494 kts | 111° |
| 2026-05-05 17:56 | 45.28161 | 18.49471 | 33795 ft | 495 kts | 111° |
| 2026-05-05 17:56 | 45.26957 | 18.54051 | 33972 ft | 495 kts | 111° |
| 2026-05-05 17:56 | 45.25758 | 18.58600 | 34191 ft | 494 kts | 111° |
| 2026-05-05 17:56 | 45.24553 | 18.63159 | 34339 ft | 494 kts | 111° |
| 2026-05-05 17:57 | 45.23352 | 18.67702 | 34551 ft | 493 kts | 112° |
| 2026-05-05 17:57 | 45.22142 | 18.72265 | 34658 ft | 495 kts | 112° |
| 2026-05-05 17:57 | 45.20930 | 18.76828 | 34793 ft | 494 kts | 112° |
| 2026-05-05 17:57 | 45.19804 | 18.81056 | 34909 ft | 494 kts | 112° |
| 2026-05-05 17:58 | 45.18577 | 18.85660 | 35078 ft | 494 kts | 112° |
| 2026-05-05 17:58 | 45.17370 | 18.90177 | 35259 ft | 492 kts | 112° |
| 2026-05-05 17:58 | 45.16159 | 18.94700 | 35365 ft | 492 kts | 112° |
| 2026-05-05 17:58 | 45.14951 | 18.99206 | 35478 ft | 492 kts | 112° |
| 2026-05-05 17:59 | 45.13743 | 19.03700 | 35644 ft | 491 kts | 111° |
| 2026-05-05 17:59 | 45.10684 | 19.12336 | 35824 ft | 489 kts | 120° |
| 2026-05-05 18:00 | 45.07361 | 19.20642 | 36026 ft | 488 kts | 121° |
| 2026-05-05 18:00 | 45.03980 | 19.28967 | 36155 ft | 489 kts | 121° |
| 2026-05-05 18:00 | 45.02284 | 19.33119 | 36262 ft | 488 kts | 121° |
| 2026-05-05 18:01 | 45.00585 | 19.37267 | 36271 ft | 490 kts | 121° |
| 2026-05-05 18:01 | 44.98860 | 19.41467 | 36391 ft | 489 kts | 121° |
| 2026-05-05 18:01 | 44.97172 | 19.45570 | 36430 ft | 490 kts | 120° |
| 2026-05-05 18:02 | 44.93736 | 19.53901 | 36591 ft | 490 kts | 120° |
| 2026-05-05 18:02 | 44.90321 | 19.62156 | 36790 ft | 489 kts | 120° |
| 2026-05-05 18:03 | 44.86859 | 19.70497 | 36878 ft | 491 kts | 121° |
| 2026-05-05 18:03 | 44.83510 | 19.78541 | 37063 ft | 490 kts | 121° |
| 2026-05-05 18:04 | 44.80064 | 19.86797 | 37193 ft | 490 kts | 121° |
| 2026-05-05 18:04 | 44.78336 | 19.90930 | 37295 ft | 489 kts | 121° |
| 2026-05-05 18:04 | 44.76603 | 19.95066 | 37306 ft | 490 kts | 121° |
| 2026-05-05 18:05 | 44.73151 | 20.03286 | 37453 ft | 489 kts | 121° |
| 2026-05-05 18:05 | 44.69700 | 20.11482 | 37537 ft | 490 kts | 121° |
| 2026-05-05 18:06 | 44.66226 | 20.19707 | 37625 ft | 490 kts | 121° |
| 2026-05-05 18:06 | 44.62750 | 20.27916 | 37742 ft | 490 kts | 121° |
| 2026-05-05 18:07 | 44.59276 | 20.36093 | 37827 ft | 490 kts | 121° |
| 2026-05-05 18:07 | 44.57519 | 20.40220 | 37931 ft | 489 kts | 120° |
| 2026-05-05 18:07 | 44.55775 | 20.44312 | 37927 ft | 490 kts | 120° |
| 2026-05-05 18:08 | 44.52293 | 20.52463 | 38078 ft | 489 kts | 120° |
| 2026-05-05 18:08 | 44.48808 | 20.60597 | 38108 ft | 490 kts | 120° |
| 2026-05-05 18:09 | 44.45302 | 20.68758 | 38154 ft | 490 kts | 121° |
| 2026-05-05 18:09 | 44.41803 | 20.76878 | 38216 ft | 490 kts | 121° |
| 2026-05-05 18:10 | 44.38249 | 20.85102 | 38232 ft | 491 kts | 121° |
| 2026-05-05 18:10 | 44.34748 | 20.93180 | 38277 ft | 491 kts | 121° |
| 2026-05-05 18:11 | 44.31191 | 21.01365 | 38326 ft | 491 kts | 121° |
| 2026-05-05 18:11 | 44.27660 | 21.09466 | 38393 ft | 491 kts | 121° |
| 2026-05-05 18:12 | 44.24132 | 21.17539 | 38441 ft | 491 kts | 120° |
| 2026-05-05 18:12 | 44.20569 | 21.25670 | 38521 ft | 490 kts | 120° |
| 2026-05-05 18:13 | 44.17018 | 21.33749 | 38550 ft | 490 kts | 121° |
| 2026-05-05 18:13 | 44.13479 | 21.41779 | 38600 ft | 490 kts | 121° |
| 2026-05-05 18:14 | 44.09916 | 21.49840 | 38672 ft | 490 kts | 120° |
| 2026-05-05 18:14 | 44.06348 | 21.57888 | 38698 ft | 490 kts | 120° |
| 2026-05-05 18:15 | 44.02784 | 21.65909 | 38722 ft | 491 kts | 121° |
| 2026-05-05 18:15 | 43.99188 | 21.73978 | 38762 ft | 491 kts | 121° |
| 2026-05-05 18:16 | 43.95658 | 21.81875 | 38792 ft | 491 kts | 121° |
| 2026-05-05 18:16 | 43.92043 | 21.89943 | 38812 ft | 491 kts | 121° |
| 2026-05-05 18:17 | 43.88439 | 21.97959 | 38849 ft | 490 kts | 121° |
| 2026-05-05 18:17 | 43.84828 | 22.05973 | 38847 ft | 490 kts | 121° |
| 2026-05-05 18:18 | 43.81229 | 22.13937 | 38860 ft | 491 kts | 121° |
| 2026-05-05 18:18 | 43.77591 | 22.21965 | 38862 ft | 491 kts | 121° |
| 2026-05-05 18:19 | 43.73980 | 22.29914 | 38863 ft | 491 kts | 121° |
| 2026-05-05 18:19 | 43.70438 | 22.37921 | 38875 ft | 489 kts | 114° |
| 2026-05-05 18:20 | 43.68338 | 22.46716 | 38937 ft | 481 kts | 95° |
| 2026-05-05 18:20 | 43.67729 | 22.55813 | 38962 ft | 473 kts | 91° |
| 2026-05-05 18:21 | 43.67175 | 22.64749 | 38940 ft | 468 kts | 91° |
| 2026-05-05 18:21 | 43.66618 | 22.73644 | 38895 ft | 463 kts | 92° |
| 2026-05-05 18:22 | 43.66063 | 22.82410 | 38862 ft | 458 kts | 92° |
| 2026-05-05 18:22 | 43.65503 | 22.91135 | 38837 ft | 454 kts | 92° |
| 2026-05-05 18:23 | 43.64946 | 22.99722 | 38817 ft | 449 kts | 92° |
| 2026-05-05 18:23 | 43.64389 | 23.08193 | 38798 ft | 444 kts | 92° |
| 2026-05-05 18:24 | 43.63829 | 23.16625 | 38778 ft | 438 kts | 92° |
| 2026-05-05 18:24 | 43.63270 | 23.24946 | 38756 ft | 433 kts | 92° |
| 2026-05-05 18:25 | 43.62714 | 23.33127 | 38731 ft | 427 kts | 91° |
| 2026-05-05 18:25 | 43.62160 | 23.41200 | 38704 ft | 421 kts | 91° |
| 2026-05-05 18:26 | 43.61606 | 23.49196 | 38682 ft | 417 kts | 91° |
| 2026-05-05 18:26 | 43.61055 | 23.57071 | 38674 ft | 415 kts | 91° |
| 2026-05-05 18:27 | 43.60495 | 23.64985 | 38670 ft | 413 kts | 91° |
| 2026-05-05 18:27 | 43.59937 | 23.72805 | 38655 ft | 410 kts | 92° |
| 2026-05-05 18:28 | 43.59091 | 23.84504 | 38616 ft | 406 kts | 92° |
| 2026-05-05 18:28 | 43.58527 | 23.92211 | 38610 ft | 403 kts | 92° |
| 2026-05-05 18:29 | 43.57962 | 23.99856 | 38586 ft | 400 kts | 92° |
| 2026-05-05 18:29 | 43.57398 | 24.07427 | 38561 ft | 397 kts | 92° |
| 2026-05-05 18:30 | 43.56833 | 24.14945 | 38537 ft | 393 kts | 92° |
| 2026-05-05 18:30 | 43.56268 | 24.22380 | 38512 ft | 388 kts | 92° |
| 2026-05-05 18:31 | 43.55708 | 24.29704 | 38492 ft | 383 kts | 92° |
| 2026-05-05 18:31 | 43.55151 | 24.36927 | 38465 ft | 378 kts | 92° |
| 2026-05-05 18:32 | 43.54596 | 24.44057 | 38431 ft | 372 kts | 92° |
| 2026-05-05 18:32 | 43.54047 | 24.51045 | 38390 ft | 365 kts | 91° |
| 2026-05-05 18:33 | 43.53505 | 24.57894 | 38347 ft | 356 kts | 91° |
| 2026-05-05 18:33 | 43.52974 | 24.64562 | 38293 ft | 347 kts | 91° |
| 2026-05-05 18:34 | 43.52454 | 24.71044 | 38190 ft | 336 kts | 92° |
| 2026-05-05 18:34 | 43.51958 | 24.77174 | 38085 ft | 321 kts | 92° |
| 2026-05-05 18:35 | 43.51710 | 24.80225 | 37938 ft | 314 kts | 92° |
| 2026-05-05 18:35 | 43.51470 | 24.83157 | 37691 ft | 305 kts | 91° |
| 2026-05-05 18:35 | 43.51238 | 24.85995 | 37064 ft | 301 kts | 91° |
| 2026-05-05 18:35 | 43.51004 | 24.88888 | 36121 ft | 308 kts | 91° |
| 2026-05-05 18:36 | 43.50766 | 24.91784 | 35524 ft | 307 kts | 90° |
| 2026-05-05 18:36 | 43.50529 | 24.94628 | 35224 ft | 296 kts | 90° |
| 2026-05-05 18:36 | 43.50299 | 24.97386 | 34806 ft | 291 kts | 90° |
| 2026-05-05 18:36 | 43.50072 | 25.00171 | 34019 ft | 299 kts | 90° |
| 2026-05-05 18:37 | 43.49839 | 25.02978 | 33412 ft | 295 kts | 90° |
| 2026-05-05 18:37 | 43.49605 | 25.05730 | 33202 ft | 283 kts | 89° |
| 2026-05-05 18:37 | 43.49381 | 25.08382 | 32858 ft | 276 kts | 89° |
| 2026-05-05 18:37 | 43.49165 | 25.11006 | 32115 ft | 282 kts | 89° |
| 2026-05-05 18:38 | 43.48938 | 25.13713 | 31534 ft | 281 kts | 89° |
| 2026-05-05 18:38 | 43.48714 | 25.16316 | 31346 ft | 270 kts | 89° |
| 2026-05-05 18:38 | 43.48501 | 25.18820 | 31037 ft | 264 kts | 88° |
| 2026-05-05 18:38 | 43.48289 | 25.21361 | 30329 ft | 270 kts | 89° |
| 2026-05-05 18:39 | 43.48074 | 25.23916 | 29747 ft | 271 kts | 89° |
| 2026-05-05 18:39 | 43.47854 | 25.26451 | 29613 ft | 260 kts | 89° |
| 2026-05-05 18:39 | 43.47643 | 25.28890 | 29409 ft | 254 kts | 88° |
| 2026-05-05 18:39 | 43.47442 | 25.31278 | 28788 ft | 260 kts | 89° |
| 2026-05-05 18:40 | 43.47231 | 25.33764 | 28169 ft | 264 kts | 89° |
| 2026-05-05 18:40 | 43.47015 | 25.36231 | 28044 ft | 254 kts | 89° |
| 2026-05-05 18:40 | 43.46807 | 25.38606 | 27942 ft | 247 kts | 89° |
| 2026-05-05 18:40 | 43.46608 | 25.40926 | 27455 ft | 251 kts | 89° |
| 2026-05-05 18:41 | 43.46403 | 25.43326 | 26859 ft | 255 kts | 90° |
| 2026-05-05 18:41 | 43.46194 | 25.45701 | 26660 ft | 249 kts | 89° |
| 2026-05-05 18:41 | 43.45988 | 25.48024 | 26587 ft | 241 kts | 89° |
| 2026-05-05 18:41 | 43.45789 | 25.50308 | 26253 ft | 240 kts | 89° |
| 2026-05-05 18:42 | 43.45590 | 25.52621 | 25653 ft | 248 kts | 90° |
| 2026-05-05 18:42 | 43.45383 | 25.54963 | 25352 ft | 245 kts | 90° |
| 2026-05-05 18:42 | 43.45179 | 25.57246 | 25363 ft | 237 kts | 89° |
| 2026-05-05 18:42 | 43.44981 | 25.59480 | 25199 ft | 235 kts | 89° |
| 2026-05-05 18:43 | 43.44787 | 25.61708 | 24761 ft | 238 kts | 90° |
| 2026-05-05 18:43 | 43.44587 | 25.63973 | 24299 ft | 242 kts | 90° |
| 2026-05-05 18:43 | 43.44384 | 25.66232 | 24212 ft | 235 kts | 91° |
| 2026-05-05 18:43 | 43.44184 | 25.68463 | 24136 ft | 231 kts | 91° |
| 2026-05-05 18:44 | 43.43989 | 25.70651 | 23856 ft | 231 kts | 91° |
| 2026-05-05 18:44 | 43.43794 | 25.72856 | 23363 ft | 237 kts | 91° |
| 2026-05-05 18:44 | 43.43592 | 25.75094 | 23199 ft | 233 kts | 91° |
| 2026-05-05 18:44 | 43.43395 | 25.77272 | 23209 ft | 228 kts | 91° |
| 2026-05-05 18:45 | 43.43201 | 25.79422 | 23071 ft | 227 kts | 91° |
| 2026-05-05 18:45 | 43.43008 | 25.81565 | 22783 ft | 227 kts | 91° |
| 2026-05-05 18:45 | 43.42813 | 25.83732 | 22444 ft | 228 kts | 91° |
| 2026-05-05 18:45 | 43.42617 | 25.85883 | 22259 ft | 226 kts | 91° |
| 2026-05-05 18:46 | 43.42424 | 25.87996 | 22185 ft | 222 kts | 91° |
| 2026-05-05 18:46 | 43.42231 | 25.90109 | 22048 ft | 221 kts | 91° |
| 2026-05-05 18:46 | 43.42041 | 25.92197 | 21800 ft | 221 kts | 91° |
| 2026-05-05 18:46 | 43.41851 | 25.94290 | 21494 ft | 222 kts | 91° |
| 2026-05-05 18:47 | 43.41658 | 25.96386 | 21305 ft | 221 kts | 91° |
| 2026-05-05 18:47 | 43.41465 | 25.98481 | 21222 ft | 219 kts | 91° |
| 2026-05-05 18:47 | 43.41276 | 26.00536 | 21100 ft | 218 kts | 91° |
| 2026-05-05 18:47 | 43.41087 | 26.02586 | 20941 ft | 218 kts | 91° |
| 2026-05-05 18:48 | 43.40897 | 26.04650 | 20769 ft | 217 kts | 90° |
| 2026-05-05 18:48 | 43.40705 | 26.06718 | 20627 ft | 216 kts | 90° |
| 2026-05-05 18:48 | 43.40516 | 26.08752 | 20523 ft | 215 kts | 90° |
| 2026-05-05 18:48 | 43.40328 | 26.10781 | 20436 ft | 214 kts | 91° |
| 2026-05-05 18:49 | 43.40140 | 26.12798 | 20334 ft | 214 kts | 90° |
| 2026-05-05 18:49 | 43.39952 | 26.14813 | 20245 ft | 213 kts | 90° |
| 2026-05-05 18:49 | 43.39761 | 26.16850 | 20159 ft | 213 kts | 90° |
| 2026-05-05 18:49 | 43.39573 | 26.18861 | 20065 ft | 212 kts | 90° |
| 2026-05-05 18:50 | 43.39384 | 26.20867 | 19987 ft | 211 kts | 90° |
| 2026-05-05 18:50 | 43.39198 | 26.22858 | 19917 ft | 211 kts | 90° |
| 2026-05-05 18:50 | 43.39010 | 26.24851 | 19829 ft | 211 kts | 90° |
| 2026-05-05 18:50 | 43.38820 | 26.26864 | 19748 ft | 211 kts | 90° |
| 2026-05-05 18:51 | 43.38631 | 26.28857 | 19679 ft | 211 kts | 90° |
| 2026-05-05 18:51 | 43.38441 | 26.30860 | 19642 ft | 210 kts | 90° |
| 2026-05-05 18:51 | 43.38254 | 26.32832 | 19598 ft | 209 kts | 90° |
| 2026-05-05 18:51 | 43.38066 | 26.34811 | 19546 ft | 209 kts | 90° |
| 2026-05-05 18:52 | 43.37877 | 26.36792 | 19491 ft | 209 kts | 90° |
| 2026-05-05 18:52 | 43.37689 | 26.38760 | 19430 ft | 210 kts | 90° |
| 2026-05-05 18:52 | 43.37500 | 26.40737 | 19371 ft | 209 kts | 90° |
| 2026-05-05 18:52 | 43.37309 | 26.42731 | 19332 ft | 209 kts | 90° |
| 2026-05-05 18:53 | 43.37120 | 26.44691 | 19296 ft | 209 kts | 90° |
| 2026-05-05 18:53 | 43.36931 | 26.46655 | 19273 ft | 208 kts | 90° |
| 2026-05-05 18:53 | 43.36740 | 26.48637 | 19248 ft | 208 kts | 90° |
| 2026-05-05 18:53 | 43.36551 | 26.50597 | 19217 ft | 207 kts | 90° |
| 2026-05-05 18:54 | 43.36362 | 26.52554 | 19182 ft | 207 kts | 90° |
| 2026-05-05 18:54 | 43.36172 | 26.54506 | 19161 ft | 207 kts | 90° |
| 2026-05-05 18:54 | 43.35981 | 26.56482 | 19137 ft | 206 kts | 90° |
| 2026-05-05 18:54 | 43.35792 | 26.58429 | 19099 ft | 206 kts | 90° |
| 2026-05-05 18:55 | 43.35603 | 26.60371 | 19072 ft | 207 kts | 90° |
| 2026-05-05 18:55 | 43.35410 | 26.62343 | 19047 ft | 207 kts | 90° |
| 2026-05-05 18:55 | 43.35220 | 26.64289 | 19030 ft | 206 kts | 90° |
| 2026-05-05 18:55 | 43.35028 | 26.66238 | 19018 ft | 206 kts | 91° |
| 2026-05-05 18:56 | 43.34837 | 26.68194 | 18993 ft | 207 kts | 91° |
| 2026-05-05 18:56 | 43.34644 | 26.70151 | 18977 ft | 207 kts | 90° |
| 2026-05-05 18:56 | 43.34452 | 26.72096 | 18979 ft | 206 kts | 90° |
| 2026-05-05 18:56 | 43.34260 | 26.74047 | 18983 ft | 206 kts | 90° |
| 2026-05-05 18:57 | 43.34067 | 26.76001 | 18973 ft | 206 kts | 90° |
| 2026-05-05 18:57 | 43.33874 | 26.77951 | 18966 ft | 207 kts | 90° |
| 2026-05-05 18:57 | 43.33683 | 26.79875 | 18978 ft | 206 kts | 90° |
| 2026-05-05 18:57 | 43.33488 | 26.81833 | 18981 ft | 206 kts | 90° |
| 2026-05-05 18:58 | 43.33294 | 26.83787 | 18989 ft | 206 kts | 90° |
| 2026-05-05 18:58 | 43.33100 | 26.85729 | 18996 ft | 206 kts | 90° |
| 2026-05-05 18:58 | 43.32906 | 26.87676 | 19017 ft | 206 kts | 90° |
| 2026-05-05 18:58 | 43.32712 | 26.89613 | 19028 ft | 206 kts | 90° |
| 2026-05-05 18:59 | 43.32516 | 26.91572 | 19036 ft | 207 kts | 90° |
| 2026-05-05 18:59 | 43.32319 | 26.93539 | 19063 ft | 208 kts | 90° |
| 2026-05-05 18:59 | 43.32120 | 26.95515 | 19101 ft | 209 kts | 91° |
| 2026-05-05 18:59 | 43.31923 | 26.97477 | 19125 ft | 211 kts | 91° |
| 2026-05-05 19:00 | 43.31719 | 26.99490 | 19163 ft | 214 kts | 91° |
| 2026-05-05 19:00 | 43.31514 | 27.01520 | 19209 ft | 217 kts | 90° |
| 2026-05-05 19:00 | 43.31305 | 27.03601 | 19253 ft | 223 kts | 91° |
| 2026-05-05 19:00 | 43.31089 | 27.05732 | 19298 ft | 230 kts | 91° |
| 2026-05-05 19:01 | 43.30866 | 27.07931 | 19345 ft | 238 kts | 91° |
| 2026-05-05 19:01 | 43.30633 | 27.10231 | 19392 ft | 247 kts | 91° |
| 2026-05-05 19:01 | 43.30392 | 27.12590 | 19439 ft | 257 kts | 91° |
| 2026-05-05 19:01 | 43.30139 | 27.15073 | 19493 ft | 269 kts | 92° |
| 2026-05-05 19:02 | 43.29873 | 27.17668 | 19541 ft | 282 kts | 92° |
| 2026-05-05 19:02 | 43.29594 | 27.20386 | 19590 ft | 296 kts | 93° |
| 2026-05-05 19:02 | 43.29298 | 27.23259 | 19639 ft | 311 kts | 93° |
| 2026-05-05 19:02 | 43.28987 | 27.26270 | 19687 ft | 327 kts | 93° |
| 2026-05-05 19:03 | 43.28661 | 27.29416 | 19735 ft | 344 kts | 94° |
| 2026-05-05 19:03 | 43.28312 | 27.32763 | 19779 ft | 363 kts | 94° |
| 2026-05-05 19:03 | 43.27945 | 27.36288 | 19820 ft | 382 kts | 94° |
| 2026-05-05 19:03 | 43.27560 | 27.39969 | 19996 ft | 399 kts | 94° |
| 2026-05-05 19:04 | 43.27162 | 27.43728 | 20690 ft | 401 kts | 94° |
| 2026-05-05 19:04 | 43.26763 | 27.47508 | 21230 ft | 407 kts | 94° |
| 2026-05-05 19:04 | 43.26358 | 27.51333 | 21868 ft | 409 kts | 94° |
| 2026-05-05 19:04 | 43.25946 | 27.55221 | 22394 ft | 414 kts | 94° |
| 2026-05-05 19:05 | 43.25532 | 27.59117 | 22949 ft | 417 kts | 95° |
| 2026-05-05 19:05 | 43.25111 | 27.63063 | 23483 ft | 421 kts | 95° |
| 2026-05-05 19:05 | 43.24686 | 27.67026 | 24008 ft | 424 kts | 96° |
| 2026-05-05 19:05 | 43.24254 | 27.71053 | 24496 ft | 427 kts | 96° |
| 2026-05-05 19:06 | 43.23822 | 27.75063 | 24970 ft | 431 kts | 96° |
| 2026-05-05 19:06 | 43.23382 | 27.79128 | 25409 ft | 434 kts | 96° |
| 2026-05-05 19:06 | 43.22803 | 27.83220 | 25848 ft | 438 kts | 100° |
| 2026-05-05 19:06 | 43.22156 | 27.87282 | 26270 ft | 441 kts | 99° |
| 2026-05-05 19:07 | 43.21491 | 27.91392 | 26691 ft | 444 kts | 100° |
| 2026-05-05 19:07 | 43.20828 | 27.95473 | 27119 ft | 446 kts | 100° |
| 2026-05-05 19:07 | 43.20144 | 27.99638 | 27500 ft | 449 kts | 100° |
| 2026-05-05 19:07 | 43.19456 | 28.03809 | 27879 ft | 451 kts | 101° |
| 2026-05-05 19:08 | 43.18768 | 28.07967 | 28253 ft | 453 kts | 101° |
| 2026-05-05 19:08 | 43.18064 | 28.12201 | 28612 ft | 455 kts | 101° |
| 2026-05-05 19:08 | 43.17366 | 28.16386 | 28950 ft | 457 kts | 101° |
| 2026-05-05 19:08 | 43.16652 | 28.20661 | 29272 ft | 459 kts | 101° |
| 2026-05-05 19:09 | 43.15940 | 28.24906 | 29568 ft | 461 kts | 101° |
| 2026-05-05 19:09 | 43.15224 | 28.29171 | 29837 ft | 464 kts | 101° |
| 2026-05-05 19:09 | 43.14502 | 28.33455 | 30110 ft | 466 kts | 101° |
| 2026-05-05 19:09 | 43.13776 | 28.37758 | 30356 ft | 468 kts | 101° |
| 2026-05-05 19:10 | 43.13041 | 28.42100 | 30588 ft | 470 kts | 101° |
| 2026-05-05 19:10 | 43.12304 | 28.46440 | 30827 ft | 471 kts | 101° |
| 2026-05-05 19:10 | 43.11559 | 28.50819 | 31051 ft | 473 kts | 101° |
| 2026-05-05 19:10 | 43.10813 | 28.55195 | 31246 ft | 476 kts | 101° |
| 2026-05-05 19:11 | 43.10061 | 28.59597 | 31514 ft | 476 kts | 100° |
| 2026-05-05 19:11 | 43.09318 | 28.63930 | 31836 ft | 475 kts | 100° |
| 2026-05-05 19:11 | 43.08560 | 28.68339 | 32147 ft | 474 kts | 101° |
| 2026-05-05 19:11 | 43.07809 | 28.72703 | 32449 ft | 473 kts | 101° |
| 2026-05-05 19:12 | 43.07055 | 28.77069 | 32732 ft | 473 kts | 101° |
| 2026-05-05 19:12 | 43.06300 | 28.81429 | 33004 ft | 472 kts | 101° |
| 2026-05-05 19:12 | 43.05544 | 28.85789 | 33261 ft | 472 kts | 101° |
| 2026-05-05 19:12 | 43.04787 | 28.90140 | 33524 ft | 472 kts | 101° |
| 2026-05-05 19:13 | 43.04039 | 28.94435 | 33781 ft | 471 kts | 101° |
| 2026-05-05 19:13 | 43.03273 | 28.98818 | 34027 ft | 471 kts | 101° |
| 2026-05-05 19:13 | 43.02515 | 29.03148 | 34259 ft | 471 kts | 101° |
| 2026-05-05 19:13 | 43.01754 | 29.07478 | 34503 ft | 470 kts | 100° |
| 2026-05-05 19:14 | 43.00994 | 29.11800 | 34738 ft | 469 kts | 100° |
| 2026-05-05 19:14 | 43.00234 | 29.16110 | 34914 ft | 468 kts | 100° |
| 2026-05-05 19:14 | 42.99477 | 29.20391 | 35066 ft | 469 kts | 100° |
| 2026-05-05 19:14 | 42.98708 | 29.24729 | 35258 ft | 468 kts | 100° |
| 2026-05-05 19:15 | 42.97945 | 29.29026 | 35385 ft | 468 kts | 100° |
| 2026-05-05 19:15 | 42.97182 | 29.33311 | 35517 ft | 469 kts | 100° |
| 2026-05-05 19:15 | 42.96416 | 29.37599 | 35654 ft | 469 kts | 100° |
| 2026-05-05 19:15 | 42.95644 | 29.41915 | 35799 ft | 468 kts | 100° |
| 2026-05-05 19:16 | 42.94874 | 29.46207 | 35931 ft | 468 kts | 100° |
| 2026-05-05 19:16 | 42.94096 | 29.50534 | 36096 ft | 467 kts | 100° |
| 2026-05-05 19:16 | 42.93330 | 29.54789 | 36203 ft | 467 kts | 100° |
| 2026-05-05 19:16 | 42.92556 | 29.59069 | 36304 ft | 467 kts | 100° |
| 2026-05-05 19:17 | 42.91776 | 29.63378 | 36451 ft | 466 kts | 100° |
| 2026-05-05 19:17 | 42.91001 | 29.67655 | 36539 ft | 467 kts | 101° |
| 2026-05-05 19:17 | 42.89429 | 29.76289 | 36730 ft | 468 kts | 101° |
| 2026-05-05 19:18 | 42.87857 | 29.84886 | 36934 ft | 468 kts | 101° |
| 2026-05-05 19:18 | 42.86282 | 29.93453 | 37097 ft | 468 kts | 101° |
| 2026-05-05 19:19 | 42.85498 | 29.97709 | 37201 ft | 468 kts | 101° |
| 2026-05-05 19:19 | 42.84700 | 30.02026 | 37287 ft | 468 kts | 101° |
| 2026-05-05 19:19 | 42.83113 | 30.10584 | 37448 ft | 468 kts | 101° |
| 2026-05-05 19:20 | 42.81521 | 30.19128 | 37583 ft | 468 kts | 101° |
| 2026-05-05 19:20 | 42.79929 | 30.27639 | 37731 ft | 467 kts | 101° |
| 2026-05-05 19:21 | 42.78311 | 30.36243 | 37831 ft | 468 kts | 101° |
| 2026-05-05 19:21 | 42.76704 | 30.44760 | 37914 ft | 469 kts | 101° |
| 2026-05-05 19:22 | 42.75082 | 30.53309 | 38054 ft | 468 kts | 101° |
| 2026-05-05 19:22 | 42.73550 | 30.61866 | 38145 ft | 466 kts | 95° |
| 2026-05-05 19:23 | 42.72736 | 30.70591 | 38244 ft | 464 kts | 95° |
| 2026-05-05 19:23 | 42.71889 | 30.79235 | 38359 ft | 464 kts | 95° |
| 2026-05-05 19:24 | 42.71016 | 30.87894 | 38401 ft | 465 kts | 95° |
| 2026-05-05 19:24 | 42.70125 | 30.96587 | 38516 ft | 464 kts | 95° |
| 2026-05-05 19:25 | 42.69229 | 31.05246 | 38592 ft | 464 kts | 95° |
| 2026-05-05 19:25 | 42.68325 | 31.13912 | 38645 ft | 464 kts | 95° |
| 2026-05-05 19:26 | 42.67417 | 31.22538 | 38676 ft | 465 kts | 95° |
| 2026-05-05 19:26 | 42.66497 | 31.31211 | 38723 ft | 465 kts | 95° |
| 2026-05-05 19:27 | 42.65575 | 31.39844 | 38752 ft | 465 kts | 95° |
| 2026-05-05 19:27 | 42.64639 | 31.48543 | 38770 ft | 466 kts | 95° |
| 2026-05-05 19:28 | 42.63701 | 31.57198 | 38829 ft | 466 kts | 95° |
| 2026-05-05 19:28 | 42.62753 | 31.65881 | 38883 ft | 465 kts | 96° |
| 2026-05-05 19:29 | 42.61803 | 31.74520 | 38951 ft | 465 kts | 96° |
| 2026-05-05 19:29 | 42.60849 | 31.83133 | 38911 ft | 461 kts | 96° |
| 2026-05-05 19:30 | 42.59897 | 31.91667 | 38883 ft | 457 kts | 96° |
| 2026-05-05 19:30 | 42.58944 | 32.00153 | 38854 ft | 454 kts | 96° |
| 2026-05-05 19:31 | 42.57998 | 32.08520 | 38832 ft | 450 kts | 96° |
| 2026-05-05 19:31 | 42.57047 | 32.16871 | 38812 ft | 447 kts | 96° |
| 2026-05-05 19:32 | 42.56103 | 32.25112 | 38792 ft | 443 kts | 96° |
| 2026-05-05 19:32 | 42.55152 | 32.33356 | 38769 ft | 440 kts | 96° |
| 2026-05-05 19:33 | 42.54208 | 32.41492 | 38748 ft | 438 kts | 96° |
| 2026-05-05 19:33 | 42.53258 | 32.49626 | 38744 ft | 441 kts | 96° |
| 2026-05-05 19:34 | 42.52293 | 32.57838 | 38720 ft | 443 kts | 96° |
| 2026-05-05 19:35 | 42.50827 | 32.70208 | 38706 ft | 447 kts | 97° |
| 2026-05-05 19:35 | 42.49834 | 32.78513 | 38688 ft | 449 kts | 97° |
| 2026-05-05 19:36 | 42.48834 | 32.86836 | 38676 ft | 451 kts | 97° |
| 2026-05-05 19:36 | 42.47822 | 32.95207 | 38663 ft | 454 kts | 97° |
| 2026-05-05 19:37 | 42.46795 | 33.03640 | 38658 ft | 456 kts | 97° |
| 2026-05-05 19:37 | 42.45761 | 33.12071 | 38650 ft | 458 kts | 97° |
| 2026-05-05 19:38 | 42.44714 | 33.20569 | 38620 ft | 461 kts | 97° |
| 2026-05-05 19:38 | 42.43652 | 33.29116 | 38611 ft | 463 kts | 97° |
| 2026-05-05 19:39 | 42.42583 | 33.37685 | 38579 ft | 465 kts | 97° |
| 2026-05-05 19:39 | 42.41503 | 33.46279 | 38627 ft | 466 kts | 97° |
| 2026-05-05 19:40 | 42.40409 | 33.54930 | 38661 ft | 466 kts | 98° |
| 2026-05-05 19:40 | 42.39314 | 33.63528 | 38731 ft | 466 kts | 98° |
| 2026-05-05 19:41 | 42.38213 | 33.72130 | 38765 ft | 467 kts | 98° |
| 2026-05-05 19:41 | 42.37103 | 33.80745 | 38852 ft | 466 kts | 98° |
| 2026-05-05 19:42 | 42.35987 | 33.89351 | 38910 ft | 466 kts | 99° |
| 2026-05-05 19:42 | 42.34865 | 33.97951 | 38920 ft | 467 kts | 98° |
| 2026-05-05 19:43 | 42.33735 | 34.06565 | 38966 ft | 466 kts | 98° |
| 2026-05-05 19:43 | 42.32603 | 34.15138 | 38994 ft | 462 kts | 99° |
| 2026-05-05 19:44 | 42.31479 | 34.23605 | 38967 ft | 458 kts | 99° |
| 2026-05-05 19:44 | 42.30361 | 34.31977 | 38943 ft | 454 kts | 99° |
| 2026-05-05 19:45 | 42.29236 | 34.40344 | 38926 ft | 451 kts | 99° |
| 2026-05-05 19:45 | 42.28124 | 34.48579 | 38901 ft | 447 kts | 99° |
| 2026-05-05 19:46 | 42.27014 | 34.56750 | 38886 ft | 443 kts | 99° |
| 2026-05-05 19:46 | 42.25903 | 34.64885 | 38860 ft | 439 kts | 99° |
| 2026-05-05 19:47 | 42.24801 | 34.72903 | 38836 ft | 435 kts | 100° |
| 2026-05-05 19:47 | 42.23700 | 34.80870 | 38822 ft | 431 kts | 100° |
| 2026-05-05 19:48 | 42.22609 | 34.88732 | 38782 ft | 426 kts | 100° |
| 2026-05-05 19:48 | 42.21516 | 34.96561 | 38749 ft | 421 kts | 100° |
| 2026-05-05 19:49 | 42.20437 | 35.04255 | 38755 ft | 421 kts | 100° |
| 2026-05-05 19:49 | 42.19343 | 35.12007 | 38747 ft | 422 kts | 100° |
| 2026-05-05 19:50 | 42.18242 | 35.19774 | 38759 ft | 422 kts | 100° |
| 2026-05-05 19:50 | 42.17143 | 35.27485 | 38752 ft | 423 kts | 100° |
| 2026-05-05 19:51 | 42.16028 | 35.35273 | 38758 ft | 423 kts | 100° |
| 2026-05-05 19:51 | 42.14910 | 35.43036 | 38760 ft | 424 kts | 100° |
| 2026-05-05 19:52 | 42.13786 | 35.50810 | 38754 ft | 424 kts | 100° |
| 2026-05-05 19:52 | 42.12655 | 35.58588 | 38769 ft | 425 kts | 100° |
| 2026-05-05 19:53 | 42.11521 | 35.66352 | 38761 ft | 426 kts | 101° |
| 2026-05-05 19:53 | 42.10373 | 35.74171 | 38763 ft | 427 kts | 101° |
| 2026-05-05 19:54 | 42.09217 | 35.82005 | 38759 ft | 427 kts | 101° |
| 2026-05-05 19:54 | 42.08058 | 35.89812 | 38768 ft | 428 kts | 101° |
| 2026-05-05 19:55 | 42.06893 | 35.97635 | 38762 ft | 429 kts | 101° |
| 2026-05-05 19:55 | 42.05714 | 36.05507 | 38756 ft | 430 kts | 101° |
| 2026-05-05 19:56 | 42.04528 | 36.13384 | 38765 ft | 431 kts | 101° |
| 2026-05-05 19:56 | 42.03340 | 36.21239 | 38756 ft | 432 kts | 101° |
| 2026-05-05 19:57 | 42.02138 | 36.29145 | 38754 ft | 433 kts | 101° |
| 2026-05-05 19:57 | 42.00932 | 36.37041 | 38747 ft | 435 kts | 101° |
| 2026-05-05 19:58 | 41.99711 | 36.44994 | 38741 ft | 436 kts | 101° |
| 2026-05-05 19:58 | 41.98484 | 36.52954 | 38736 ft | 438 kts | 102° |
| 2026-05-05 19:59 | 41.97237 | 36.60996 | 38732 ft | 439 kts | 102° |
| 2026-05-05 19:59 | 41.95991 | 36.69001 | 38730 ft | 441 kts | 102° |
| 2026-05-05 20:00 | 41.94731 | 36.77050 | 38719 ft | 443 kts | 102° |
| 2026-05-05 20:00 | 41.93462 | 36.85119 | 38704 ft | 445 kts | 102° |
| 2026-05-05 20:01 | 41.92181 | 36.93222 | 38697 ft | 446 kts | 102° |
| 2026-05-05 20:01 | 41.90885 | 37.01381 | 38700 ft | 448 kts | 102° |
| 2026-05-05 20:02 | 41.89725 | 37.09576 | 38707 ft | 450 kts | 100° |
| 2026-05-05 20:02 | 41.88672 | 37.17718 | 38712 ft | 452 kts | 100° |
| 2026-05-05 20:03 | 41.87589 | 37.26006 | 38716 ft | 453 kts | 100° |
| 2026-05-05 20:03 | 41.86496 | 37.34321 | 38720 ft | 455 kts | 100° |
| 2026-05-05 20:04 | 41.85389 | 37.42689 | 38725 ft | 457 kts | 100° |
| 2026-05-05 20:04 | 41.84271 | 37.51098 | 38732 ft | 459 kts | 100° |
| 2026-05-05 20:05 | 41.83148 | 37.59490 | 38737 ft | 461 kts | 101° |
| 2026-05-05 20:05 | 41.82008 | 37.67953 | 38743 ft | 463 kts | 101° |
| 2026-05-05 20:06 | 41.80865 | 37.76399 | 38752 ft | 464 kts | 101° |
| 2026-05-05 20:06 | 41.79705 | 37.84916 | 38755 ft | 466 kts | 101° |
| 2026-05-05 20:07 | 41.78542 | 37.93405 | 38757 ft | 468 kts | 101° |
| 2026-05-05 20:07 | 41.77361 | 38.01981 | 38786 ft | 469 kts | 101° |
| 2026-05-05 20:08 | 41.76172 | 38.10564 | 38887 ft | 469 kts | 101° |
| 2026-05-05 20:08 | 41.74989 | 38.19056 | 38987 ft | 466 kts | 101° |
| 2026-05-05 20:09 | 41.73798 | 38.27557 | 38976 ft | 462 kts | 102° |
| 2026-05-05 20:09 | 41.72618 | 38.35935 | 38970 ft | 458 kts | 102° |
| 2026-05-05 20:10 | 41.71444 | 38.44215 | 38971 ft | 455 kts | 102° |
| 2026-05-05 20:10 | 41.70266 | 38.52488 | 38964 ft | 451 kts | 102° |
| 2026-05-05 20:11 | 41.69102 | 38.60617 | 38968 ft | 447 kts | 102° |
| 2026-05-05 20:11 | 41.67938 | 38.68709 | 38970 ft | 443 kts | 102° |
| 2026-05-05 20:12 | 41.66770 | 38.76776 | 38967 ft | 439 kts | 102° |
| 2026-05-05 20:12 | 41.65620 | 38.84680 | 38955 ft | 435 kts | 102° |
| 2026-05-05 20:13 | 41.64465 | 38.92580 | 38942 ft | 430 kts | 102° |
| 2026-05-05 20:13 | 41.63325 | 39.00342 | 38927 ft | 426 kts | 102° |
| 2026-05-05 20:14 | 41.62192 | 39.08015 | 38909 ft | 421 kts | 102° |
| 2026-05-05 20:14 | 41.61060 | 39.15650 | 38900 ft | 415 kts | 102° |
| 2026-05-05 20:15 | 41.59945 | 39.23127 | 38886 ft | 409 kts | 102° |
| 2026-05-05 20:15 | 41.58841 | 39.30499 | 38864 ft | 403 kts | 103° |
| 2026-05-05 20:16 | 41.57756 | 39.37711 | 38846 ft | 396 kts | 103° |
| 2026-05-05 20:16 | 41.56676 | 39.44860 | 38816 ft | 388 kts | 103° |
| 2026-05-05 20:17 | 41.55623 | 39.51801 | 38786 ft | 380 kts | 103° |
| 2026-05-05 20:17 | 41.54589 | 39.58589 | 38754 ft | 370 kts | 103° |
| 2026-05-05 20:18 | 41.53573 | 39.65226 | 38718 ft | 361 kts | 104° |
| 2026-05-05 20:18 | 41.52578 | 39.71699 | 38690 ft | 354 kts | 103° |
| 2026-05-05 20:19 | 41.51594 | 39.78080 | 38655 ft | 346 kts | 104° |
| 2026-05-05 20:19 | 41.50638 | 39.84254 | 38607 ft | 336 kts | 104° |
| 2026-05-05 20:20 | 41.49708 | 39.90240 | 38532 ft | 325 kts | 104° |
| 2026-05-05 20:20 | 41.48812 | 39.95985 | 38397 ft | 310 kts | 104° |
| 2026-05-05 20:20 | 41.48379 | 39.98757 | 38258 ft | 302 kts | 104° |
| 2026-05-05 20:21 | 41.47961 | 40.01431 | 37933 ft | 293 kts | 104° |
| 2026-05-05 20:21 | 41.47543 | 40.04089 | 37245 ft | 297 kts | 104° |
| 2026-05-05 20:21 | 41.47123 | 40.06753 | 36571 ft | 298 kts | 104° |
| 2026-05-05 20:21 | 41.46709 | 40.09391 | 36274 ft | 286 kts | 105° |
| 2026-05-05 20:22 | 41.46315 | 40.11906 | 36003 ft | 275 kts | 105° |
| 2026-05-05 20:22 | 41.45919 | 40.14401 | 35318 ft | 280 kts | 105° |
| 2026-05-05 20:22 | 41.45513 | 40.16958 | 34630 ft | 282 kts | 106° |
| 2026-05-05 20:22 | 41.45119 | 40.19458 | 34353 ft | 270 kts | 106° |
| 2026-05-05 20:23 | 41.44743 | 40.21840 | 34153 ft | 259 kts | 106° |
| 2026-05-05 20:23 | 41.44368 | 40.24194 | 33564 ft | 264 kts | 107° |
| 2026-05-05 20:23 | 41.43985 | 40.26580 | 32995 ft | 269 kts | 106° |
| 2026-05-05 20:23 | 41.43601 | 40.29006 | 32764 ft | 260 kts | 105° |
| 2026-05-05 20:24 | 41.43238 | 40.31294 | 32634 ft | 249 kts | 106° |
| 2026-05-05 20:24 | 41.42877 | 40.33546 | 32209 ft | 253 kts | 105° |
| 2026-05-05 20:24 | 41.42504 | 40.35856 | 31685 ft | 261 kts | 105° |
| 2026-05-05 20:24 | 41.42139 | 40.38151 | 31499 ft | 250 kts | 105° |
| 2026-05-05 20:25 | 41.41787 | 40.40362 | 31408 ft | 240 kts | 105° |
| 2026-05-05 20:25 | 41.41440 | 40.42511 | 30964 ft | 246 kts | 105° |
| 2026-05-05 20:25 | 41.41080 | 40.44736 | 30182 ft | 251 kts | 105° |
| 2026-05-05 20:25 | 41.40723 | 40.46968 | 30053 ft | 240 kts | 105° |
| 2026-05-05 20:26 | 41.40382 | 40.49093 | 30029 ft | 231 kts | 105° |
| 2026-05-05 20:26 | 41.40048 | 40.51156 | 29491 ft | 234 kts | 105° |
| 2026-05-05 20:26 | 41.39696 | 40.53321 | 28686 ft | 243 kts | 105° |
| 2026-05-05 20:26 | 41.39348 | 40.55477 | 28467 ft | 234 kts | 105° |
| 2026-05-05 20:27 | 41.39016 | 40.57537 | 28499 ft | 225 kts | 105° |
| 2026-05-05 20:27 | 41.38686 | 40.59572 | 28127 ft | 225 kts | 105° |
| 2026-05-05 20:27 | 41.38350 | 40.61630 | 27395 ft | 235 kts | 105° |
| 2026-05-05 20:27 | 41.38005 | 40.63751 | 27056 ft | 230 kts | 105° |
| 2026-05-05 20:28 | 41.37678 | 40.65774 | 27074 ft | 221 kts | 106° |
| 2026-05-05 20:28 | 41.37351 | 40.67780 | 26842 ft | 219 kts | 106° |
| 2026-05-05 20:28 | 41.37037 | 40.69691 | 26211 ft | 228 kts | 106° |
| 2026-05-05 20:28 | 41.36698 | 40.71762 | 25773 ft | 227 kts | 105° |
| 2026-05-05 20:29 | 41.36372 | 40.73774 | 25784 ft | 218 kts | 106° |
| 2026-05-05 20:29 | 41.36058 | 40.75694 | 25685 ft | 214 kts | 105° |
| 2026-05-05 20:29 | 41.35739 | 40.77633 | 25179 ft | 220 kts | 106° |
| 2026-05-05 20:29 | 41.35409 | 40.79637 | 24650 ft | 223 kts | 105° |
| 2026-05-05 20:30 | 41.35084 | 40.81618 | 24595 ft | 215 kts | 105° |
| 2026-05-05 20:30 | 41.34771 | 40.83536 | 24602 ft | 211 kts | 106° |
| 2026-05-05 20:30 | 41.34458 | 40.85428 | 24354 ft | 210 kts | 105° |
| 2026-05-05 20:30 | 41.34140 | 40.87351 | 23855 ft | 216 kts | 105° |
| 2026-05-05 20:31 | 41.33820 | 40.89289 | 23554 ft | 215 kts | 105° |
| 2026-05-05 20:31 | 41.33503 | 40.91220 | 23609 ft | 208 kts | 105° |
| 2026-05-05 20:31 | 41.33193 | 40.93090 | 23514 ft | 207 kts | 105° |
| 2026-05-05 20:31 | 41.32886 | 40.94946 | 23256 ft | 207 kts | 105° |
| 2026-05-05 20:32 | 41.32573 | 40.96831 | 22786 ft | 213 kts | 105° |
| 2026-05-05 20:32 | 41.32254 | 40.98747 | 22471 ft | 212 kts | 105° |
| 2026-05-05 20:32 | 41.31941 | 41.00642 | 22500 ft | 206 kts | 105° |
| 2026-05-05 20:32 | 41.31636 | 41.02476 | 22456 ft | 205 kts | 105° |
| 2026-05-05 20:33 | 41.31327 | 41.04330 | 22315 ft | 204 kts | 105° |
| 2026-05-05 20:33 | 41.31024 | 41.06148 | 22021 ft | 205 kts | 106° |
| 2026-05-05 20:33 | 41.30711 | 41.08024 | 21545 ft | 212 kts | 106° |
| 2026-05-05 20:33 | 41.30396 | 41.09916 | 21452 ft | 207 kts | 105° |
| 2026-05-05 20:34 | 41.30089 | 41.11752 | 21547 ft | 203 kts | 105° |
| 2026-05-05 20:34 | 41.29781 | 41.13593 | 21487 ft | 204 kts | 105° |
| 2026-05-05 20:34 | 41.29476 | 41.15417 | 21470 ft | 202 kts | 105° |
| 2026-05-05 20:34 | 41.29167 | 41.17262 | 21434 ft | 202 kts | 106° |
| 2026-05-05 20:35 | 41.28865 | 41.19059 | 21393 ft | 199 kts | 105° |
| 2026-05-05 20:35 | 41.28565 | 41.20843 | 21261 ft | 199 kts | 105° |
| 2026-05-05 20:35 | 41.28260 | 41.22655 | 20888 ft | 204 kts | 104° |
| 2026-05-05 20:35 | 41.27942 | 41.24522 | 20519 ft | 207 kts | 104° |
| 2026-05-05 20:36 | 41.27639 | 41.26344 | 20621 ft | 201 kts | 106° |
| 2026-05-05 20:36 | 41.27333 | 41.28153 | 20638 ft | 202 kts | 104° |
| 2026-05-05 20:36 | 41.27023 | 41.29977 | 20612 ft | 202 kts | 104° |
| 2026-05-05 20:36 | 41.26714 | 41.31806 | 20593 ft | 204 kts | 105° |
| 2026-05-05 20:37 | 41.26408 | 41.33615 | 20671 ft | 203 kts | 104° |
| 2026-05-05 20:37 | 41.26098 | 41.35450 | 20684 ft | 206 kts | 105° |
| 2026-05-05 20:37 | 41.25781 | 41.37320 | 20735 ft | 208 kts | 105° |
| 2026-05-05 20:37 | 41.25462 | 41.39203 | 20783 ft | 212 kts | 105° |
| 2026-05-05 20:38 | 41.25134 | 41.41130 | 20819 ft | 217 kts | 105° |
| 2026-05-05 20:38 | 41.24797 | 41.43109 | 20857 ft | 224 kts | 105° |
| 2026-05-05 20:38 | 41.24447 | 41.45161 | 20899 ft | 232 kts | 104° |
| 2026-05-05 20:38 | 41.24084 | 41.47292 | 20944 ft | 241 kts | 104° |
| 2026-05-05 20:39 | 41.23706 | 41.49503 | 20989 ft | 251 kts | 104° |
| 2026-05-05 20:39 | 41.23312 | 41.51806 | 21030 ft | 263 kts | 104° |
| 2026-05-05 20:39 | 41.22899 | 41.54221 | 21072 ft | 275 kts | 104° |
| 2026-05-05 20:39 | 41.22460 | 41.56779 | 21112 ft | 289 kts | 104° |
| 2026-05-05 20:40 | 41.22005 | 41.59430 | 21151 ft | 303 kts | 104° |
| 2026-05-05 20:40 | 41.21527 | 41.62208 | 21189 ft | 319 kts | 104° |
| 2026-05-05 20:40 | 41.21023 | 41.65136 | 21221 ft | 335 kts | 104° |
| 2026-05-05 20:40 | 41.20487 | 41.68241 | 21258 ft | 353 kts | 104° |
| 2026-05-05 20:41 | 41.19925 | 41.71498 | 21283 ft | 372 kts | 104° |
| 2026-05-05 20:41 | 41.19333 | 41.74915 | 21347 ft | 390 kts | 104° |
| 2026-05-05 20:41 | 41.18718 | 41.78468 | 21977 ft | 395 kts | 104° |
| 2026-05-05 20:41 | 41.18103 | 41.82008 | 22647 ft | 398 kts | 104° |
| 2026-05-05 20:42 | 41.17479 | 41.85590 | 23302 ft | 401 kts | 104° |
| 2026-05-05 20:42 | 41.16847 | 41.89216 | 23938 ft | 404 kts | 104° |
| 2026-05-05 20:42 | 41.16214 | 41.92838 | 24472 ft | 408 kts | 104° |
| 2026-05-05 20:42 | 41.15573 | 41.96500 | 24964 ft | 412 kts | 104° |
| 2026-05-05 20:43 | 41.14919 | 42.00225 | 25391 ft | 418 kts | 104° |
| 2026-05-05 20:43 | 41.14263 | 42.03960 | 25868 ft | 421 kts | 105° |
| 2026-05-05 20:43 | 41.13593 | 42.07765 | 26204 ft | 427 kts | 105° |
| 2026-05-05 20:43 | 41.12920 | 42.11573 | 26636 ft | 430 kts | 105° |
| 2026-05-05 20:44 | 41.12235 | 42.15442 | 27018 ft | 434 kts | 105° |
| 2026-05-05 20:44 | 41.11538 | 42.19375 | 27421 ft | 437 kts | 105° |
| 2026-05-05 20:44 | 41.10849 | 42.23251 | 27745 ft | 441 kts | 106° |
| 2026-05-05 20:44 | 41.10136 | 42.27256 | 28125 ft | 444 kts | 106° |
| 2026-05-05 20:45 | 41.08708 | 42.35248 | 28738 ft | 451 kts | 107° |
| 2026-05-05 20:45 | 41.07979 | 42.39316 | 29031 ft | 454 kts | 107° |
| 2026-05-05 20:45 | 41.07251 | 42.43370 | 29329 ft | 458 kts | 107° |
| 2026-05-05 20:46 | 41.06507 | 42.47499 | 29569 ft | 461 kts | 107° |
| 2026-05-05 20:46 | 41.05769 | 42.51594 | 29867 ft | 464 kts | 108° |
| 2026-05-05 20:46 | 41.05012 | 42.55779 | 30090 ft | 468 kts | 108° |
| 2026-05-05 20:46 | 41.04251 | 42.59977 | 30249 ft | 473 kts | 108° |
| 2026-05-05 20:47 | 41.03489 | 42.64174 | 30604 ft | 473 kts | 108° |
| 2026-05-05 20:47 | 41.02718 | 42.68406 | 30793 ft | 476 kts | 109° |
| 2026-05-05 20:47 | 41.01944 | 42.72649 | 31039 ft | 477 kts | 109° |
| 2026-05-05 20:47 | 41.01162 | 42.76923 | 31300 ft | 478 kts | 109° |
| 2026-05-05 20:48 | 41.00381 | 42.81182 | 31589 ft | 477 kts | 109° |
| 2026-05-05 20:48 | 40.99593 | 42.85475 | 31882 ft | 477 kts | 109° |
| 2026-05-05 20:48 | 40.98815 | 42.89699 | 32092 ft | 478 kts | 109° |
| 2026-05-05 20:48 | 40.98024 | 42.93985 | 32372 ft | 477 kts | 109° |
| 2026-05-05 20:49 | 40.97245 | 42.98203 | 32687 ft | 476 kts | 109° |
| 2026-05-05 20:49 | 40.96454 | 43.02468 | 32920 ft | 476 kts | 109° |
| 2026-05-05 20:49 | 40.95678 | 43.06653 | 33203 ft | 475 kts | 109° |
| 2026-05-05 20:49 | 40.94890 | 43.10887 | 33504 ft | 473 kts | 109° |
| 2026-05-05 20:50 | 40.94103 | 43.15106 | 33827 ft | 471 kts | 109° |
| 2026-05-05 20:50 | 40.93324 | 43.19270 | 34061 ft | 470 kts | 108° |
| 2026-05-05 20:50 | 40.92541 | 43.23450 | 34273 ft | 469 kts | 109° |
| 2026-05-05 20:50 | 40.91756 | 43.27630 | 34395 ft | 471 kts | 109° |
| 2026-05-05 20:51 | 40.90967 | 43.31825 | 34590 ft | 470 kts | 108° |
| 2026-05-05 20:51 | 40.90179 | 43.36003 | 34707 ft | 471 kts | 109° |
| 2026-05-05 20:51 | 40.88598 | 43.44365 | 34897 ft | 472 kts | 109° |
| 2026-05-05 20:52 | 40.87794 | 43.48594 | 35152 ft | 474 kts | 109° |
| 2026-05-05 20:52 | 40.86985 | 43.52846 | 35357 ft | 473 kts | 109° |
| 2026-05-05 20:52 | 40.86205 | 43.56943 | 35508 ft | 473 kts | 108° |
| 2026-05-05 20:52 | 40.85406 | 43.61125 | 35635 ft | 475 kts | 108° |
| 2026-05-05 20:53 | 40.84596 | 43.65359 | 35758 ft | 475 kts | 109° |
| 2026-05-05 20:53 | 40.84005 | 43.69649 | 35669 ft | 480 kts | 100° |
| 2026-05-05 20:53 | 40.83902 | 43.73975 | 35777 ft | 486 kts | 93° |
| 2026-05-05 20:53 | 40.83973 | 43.78439 | 35888 ft | 487 kts | 94° |
| 2026-05-05 20:54 | 40.84012 | 43.82889 | 36090 ft | 486 kts | 94° |
| 2026-05-05 20:54 | 40.84040 | 43.87330 | 36198 ft | 487 kts | 94° |
| 2026-05-05 20:54 | 40.84061 | 43.91768 | 36318 ft | 488 kts | 94° |
| 2026-05-05 20:54 | 40.84076 | 43.96290 | 36452 ft | 488 kts | 94° |
| 2026-05-05 20:55 | 40.84087 | 44.00705 | 36586 ft | 488 kts | 94° |
| 2026-05-05 20:55 | 40.84095 | 44.05175 | 36721 ft | 488 kts | 94° |
| 2026-05-05 20:55 | 40.84100 | 44.09644 | 36855 ft | 488 kts | 94° |
| 2026-05-05 20:55 | 40.84104 | 44.14109 | 36922 ft | 490 kts | 94° |
| 2026-05-05 20:56 | 40.84105 | 44.18583 | 37041 ft | 490 kts | 94° |
| 2026-05-05 20:56 | 40.84104 | 44.23051 | 37119 ft | 491 kts | 94° |
| 2026-05-05 20:56 | 40.84101 | 44.27566 | 37242 ft | 490 kts | 94° |
| 2026-05-05 20:56 | 40.84097 | 44.32032 | 37371 ft | 490 kts | 94° |
| 2026-05-05 20:57 | 40.84082 | 44.41021 | 37535 ft | 491 kts | 94° |
| 2026-05-05 20:57 | 40.84061 | 44.50066 | 37655 ft | 493 kts | 94° |
| 2026-05-05 20:58 | 40.84032 | 44.59093 | 37838 ft | 494 kts | 94° |
| 2026-05-05 20:58 | 40.83996 | 44.68124 | 38030 ft | 493 kts | 94° |
| 2026-05-05 20:59 | 40.83977 | 44.72562 | 38138 ft | 493 kts | 95° |
| 2026-05-05 20:59 | 40.83954 | 44.77049 | 38201 ft | 493 kts | 95° |
| 2026-05-05 20:59 | 40.83904 | 44.86095 | 38328 ft | 495 kts | 95° |
| 2026-05-05 21:00 | 40.83877 | 44.90620 | 38466 ft | 493 kts | 94° |
| 2026-05-05 21:00 | 40.83847 | 44.95157 | 38507 ft | 495 kts | 95° |
| 2026-05-05 21:00 | 40.83784 | 45.04195 | 38658 ft | 495 kts | 95° |
| 2026-05-05 21:01 | 40.83714 | 45.13242 | 38795 ft | 495 kts | 95° |
| 2026-05-05 21:01 | 40.83635 | 45.22284 | 38960 ft | 494 kts | 95° |
| 2026-05-05 21:02 | 40.83550 | 45.31337 | 38966 ft | 491 kts | 95° |
| 2026-05-05 21:02 | 40.83460 | 45.40243 | 38979 ft | 488 kts | 95° |
| 2026-05-05 21:03 | 40.83363 | 45.49160 | 38989 ft | 483 kts | 95° |
| 2026-05-05 21:03 | 40.83260 | 45.57945 | 38983 ft | 480 kts | 95° |
| 2026-05-05 21:04 | 40.83150 | 45.66767 | 38982 ft | 477 kts | 96° |
| 2026-05-05 21:04 | 40.83035 | 45.75435 | 38977 ft | 474 kts | 96° |
| 2026-05-05 21:05 | 40.82914 | 45.84087 | 38972 ft | 471 kts | 96° |
| 2026-05-05 21:05 | 40.82787 | 45.92676 | 38957 ft | 468 kts | 96° |
| 2026-05-05 21:06 | 40.82655 | 46.01236 | 38957 ft | 464 kts | 96° |
| 2026-05-05 21:06 | 40.82518 | 46.09676 | 38949 ft | 461 kts | 96° |
| 2026-05-05 21:07 | 40.82377 | 46.18034 | 38953 ft | 456 kts | 96° |
| 2026-05-05 21:07 | 40.82229 | 46.26396 | 38949 ft | 452 kts | 97° |
| 2026-05-05 21:08 | 40.82079 | 46.34605 | 38948 ft | 447 kts | 97° |
| 2026-05-05 21:08 | 40.81924 | 46.42752 | 38949 ft | 442 kts | 97° |
| 2026-05-05 21:09 | 40.81766 | 46.50740 | 38948 ft | 437 kts | 97° |
| 2026-05-05 21:09 | 40.81604 | 46.58697 | 38953 ft | 431 kts | 97° |
| 2026-05-05 21:10 | 40.81438 | 46.66508 | 38951 ft | 424 kts | 98° |
| 2026-05-05 21:10 | 40.81271 | 46.74201 | 38937 ft | 416 kts | 98° |
| 2026-05-05 21:11 | 40.81103 | 46.81709 | 38935 ft | 407 kts | 98° |
| 2026-05-05 21:11 | 40.80933 | 46.89068 | 38947 ft | 396 kts | 99° |
| 2026-05-05 21:12 | 40.80764 | 46.96227 | 38941 ft | 384 kts | 99° |
| 2026-05-05 21:12 | 40.80598 | 47.03093 | 38939 ft | 370 kts | 99° |
| 2026-05-05 21:13 | 40.80434 | 47.09708 | 38918 ft | 352 kts | 100° |
| 2026-05-05 21:13 | 40.80278 | 47.15945 | 38811 ft | 328 kts | 101° |
| 2026-05-05 21:14 | 40.80203 | 47.18897 | 38313 ft | 320 kts | 101° |
| 2026-05-05 21:14 | 40.80117 | 47.21833 | 37477 ft | 331 kts | 101° |
| 2026-05-05 21:14 | 40.80035 | 47.24867 | 36851 ft | 330 kts | 101° |
| 2026-05-05 21:14 | 40.79963 | 47.27816 | 36550 ft | 315 kts | 101° |
| 2026-05-05 21:15 | 40.79888 | 47.30655 | 36065 ft | 312 kts | 102° |
| 2026-05-05 21:15 | 40.79803 | 47.33526 | 35348 ft | 318 kts | 102° |
| 2026-05-05 21:15 | 40.79723 | 47.36442 | 34802 ft | 315 kts | 101° |
| 2026-05-05 21:15 | 40.79651 | 47.39246 | 34450 ft | 305 kts | 103° |
| 2026-05-05 21:16 | 40.79571 | 47.42036 | 33920 ft | 303 kts | 103° |
| 2026-05-05 21:16 | 40.79487 | 47.44796 | 33195 ft | 304 kts | 108° |
| 2026-05-05 21:16 | 40.79253 | 47.47522 | 32562 ft | 301 kts | 90° |
| 2026-05-05 21:16 | 40.80006 | 47.50173 | 30896 ft | 358 kts | 25° |
| 2026-05-05 21:17 | 40.82349 | 47.50979 | 29255 ft | 361 kts | 351° |
| 2026-05-05 21:17 | 40.84506 | 47.51281 | 31282 ft | 284 kts | 19° |
| 2026-05-05 21:17 | 40.86130 | 47.52345 | 31520 ft | 269 kts | 43° |
| 2026-05-05 21:17 | 40.87270 | 47.54360 | 28614 ft | 343 kts | 109° |
| 2026-05-05 21:18 | 40.86179 | 47.56963 | 26272 ft | 354 kts | 134° |
| 2026-05-05 21:18 | 40.85064 | 47.59280 | 29032 ft | 264 kts | 131° |
| 2026-05-05 21:18 | 40.84322 | 47.60986 | 30454 ft | 198 kts | 136° |
| 2026-05-05 21:18 | 40.83533 | 47.62622 | 29056 ft | 250 kts | 135° |
| 2026-05-05 21:19 | 40.82521 | 47.64637 | 27625 ft | 278 kts | 130° |
| 2026-05-05 21:19 | 40.81579 | 47.66666 | 28312 ft | 230 kts | 134° |
| 2026-05-05 21:19 | 40.80805 | 47.68344 | 28169 ft | 220 kts | 136° |
| 2026-05-05 21:19 | 40.79965 | 47.70253 | 26624 ft | 272 kts | 114° |
| 2026-05-05 21:20 | 40.79480 | 47.72689 | 26161 ft | 267 kts | 118° |
| 2026-05-05 21:20 | 40.79038 | 47.74866 | 26487 ft | 236 kts | 94° |
| 2026-05-05 21:20 | 40.79213 | 47.76664 | 22324 ft | 340 kts | 156° |
| 2026-05-05 21:20 | 40.77476 | 47.78537 | 19674 ft | 367 kts | 136° |
| 2026-05-05 21:21 | 40.76625 | 47.80729 | 23392 ft | 245 kts | 108° |
| 2026-05-05 21:21 | 40.76586 | 47.82605 | 24504 ft | 208 kts | 82° |
| 2026-05-05 21:21 | 40.77138 | 47.84670 | 22765 ft | 293 kts | 65° |
| 2026-05-05 21:21 | 40.77704 | 47.87141 | 22429 ft | 266 kts | 115° |
| 2026-05-05 21:22 | 40.76971 | 47.89040 | 22002 ft | 227 kts | 169° |
| 2026-05-05 21:22 | 40.75524 | 47.89278 | 21232 ft | 213 kts | 204° |
| 2026-05-05 21:22 | 40.74225 | 47.88963 | 21850 ft | 172 kts | 170° |
| 2026-05-05 21:22 | 40.73136 | 47.89755 | 20933 ft | 234 kts | 113° |
| 2026-05-05 21:23 | 40.73628 | 47.91973 | 17905 ft | 364 kts | 34° |
| 2026-05-05 21:23 | 40.75368 | 47.93969 | 19562 ft | 296 kts | 60° |
| 2026-05-05 21:23 | 40.76210 | 47.95821 | 21476 ft | 212 kts | 69° |
| 2026-05-05 21:23 | 40.76851 | 47.97572 | 20911 ft | 239 kts | 82° |
| 2026-05-05 21:24 | 40.77195 | 47.99892 | 19798 ft | 268 kts | 91° |
| 2026-05-05 21:24 | 40.77377 | 48.02085 | 20656 ft | 218 kts | 94° |
| 2026-05-05 21:24 | 40.77473 | 48.03981 | 20361 ft | 220 kts | 103° |
| 2026-05-05 21:24 | 40.77382 | 48.06189 | 19137 ft | 263 kts | 94° |
| 2026-05-05 21:25 | 40.77425 | 48.08396 | 19899 ft | 217 kts | 101° |
| 2026-05-05 21:25 | 40.77411 | 48.10236 | 19825 ft | 211 kts | 109° |
| 2026-05-05 21:25 | 40.77099 | 48.12255 | 18529 ft | 252 kts | 108° |
| 2026-05-05 21:25 | 40.77390 | 48.14462 | 18158 ft | 273 kts | 29° |
| 2026-05-05 21:26 | 40.79053 | 48.14281 | 15355 ft | 322 kts | 294° |
| 2026-05-05 21:26 | 40.79959 | 48.12053 | 17248 ft | 237 kts | 275° |
| 2026-05-05 21:26 | 40.80111 | 48.10661 | 19159 ft | 128 kts | 243° |
| 2026-05-05 21:26 | 40.79688 | 48.09531 | 17951 ft | 190 kts | 211° |
| 2026-05-05 21:27 | 40.78357 | 48.09103 | 17153 ft | 211 kts | 164° |
| 2026-05-05 21:27 | 40.77290 | 48.10043 | 18148 ft | 177 kts | 127° |
| 2026-05-05 21:27 | 40.76904 | 48.11668 | 17257 ft | 243 kts | 69° |
| 2026-05-05 21:27 | 40.78405 | 48.12603 | 14016 ft | 349 kts | 341° |
| 2026-05-05 21:28 | 40.80435 | 48.12239 | 16197 ft | 261 kts | 8° |
| 2026-05-05 21:28 | 40.81792 | 48.12846 | 17735 ft | 194 kts | 40° |
| 2026-05-05 21:28 | 40.82863 | 48.14225 | 16509 ft | 257 kts | 75° |
| 2026-05-05 21:28 | 40.83117 | 48.16486 | 16181 ft | 234 kts | 119° |
| 2026-05-05 21:29 | 40.82544 | 48.18076 | 17108 ft | 169 kts | 135° |
| 2026-05-05 21:29 | 40.81898 | 48.19391 | 16383 ft | 202 kts | 133° |
| 2026-05-05 21:29 | 40.81072 | 48.21034 | 15816 ft | 214 kts | 131° |
| 2026-05-05 21:29 | 40.80385 | 48.22504 | 16544 ft | 171 kts | 133° |
| 2026-05-05 21:30 | 40.79670 | 48.23768 | 15791 ft | 196 kts | 156° |
| 2026-05-05 21:30 | 40.78393 | 48.24512 | 15121 ft | 200 kts | 167° |
| 2026-05-05 21:30 | 40.77376 | 48.25408 | 15822 ft | 170 kts | 126° |
| 2026-05-05 21:30 | 40.77191 | 48.27044 | 14095 ft | 274 kts | 26° |
| 2026-05-05 21:31 | 40.78764 | 48.26111 | 10830 ft | 343 kts | 307° |
| 2026-05-05 21:31 | 40.79984 | 48.24740 | 14240 ft | 198 kts | 335° |
| 2026-05-05 21:31 | 40.81028 | 48.24490 | 14983 ft | 171 kts | 359° |
| 2026-05-05 21:31 | 40.82460 | 48.25103 | 13161 ft | 274 kts | 46° |
| 2026-05-05 21:32 | 40.83337 | 48.26985 | 14221 ft | 214 kts | 91° |
| 2026-05-05 21:32 | 40.83288 | 48.28615 | 14703 ft | 174 kts | 133° |
| 2026-05-05 21:32 | 40.82451 | 48.29021 | 11475 ft | 287 kts | 261° |
| 2026-05-05 21:32 | 40.82801 | 48.26414 | 10982 ft | 279 kts | 276° |
| 2026-05-05 21:33 | 40.82751 | 48.24833 | 13758 ft | 146 kts | 239° |